createdAt,value
2022-08-14T00:00:25.053Z,54.76
2022-08-14T00:05:31.651Z,55.23
2022-08-14T00:10:51.141Z,55.84
2022-08-14T00:16:41.070Z,55.93
2022-08-14T00:21:42.024Z,55.98
2022-08-14T00:26:43.868Z,56.30
2022-08-14T00:31:46.051Z,56.58
2022-08-14T00:36:48.622Z,56.80
2022-08-14T00:41:51.356Z,56.68
2022-08-14T00:46:54.427Z,56.65
2022-08-14T00:52:01.123Z,56.72
2022-08-14T00:57:03.341Z,56.68
2022-08-14T01:02:05.956Z,56.82
2022-08-14T01:07:14.292Z,57.01
2022-08-14T01:12:27.348Z,56.91
2022-08-14T01:17:59.210Z,56.78
2022-08-14T01:23:02.485Z,56.91
2022-08-14T01:28:06.930Z,56.29
2022-08-14T01:33:13.472Z,56.03
2022-08-14T01:38:15.388Z,55.41
2022-08-14T01:43:35.944Z,55.25
2022-08-14T01:48:40.462Z,55.33
2022-08-14T01:53:45.177Z,54.92
2022-08-14T01:58:57.632Z,54.29
2022-08-14T02:03:59.891Z,54.04
2022-08-14T02:09:04.412Z,53.80
2022-08-14T02:14:31.250Z,53.95
2022-08-14T02:19:35.840Z,53.73
2022-08-14T02:24:40.261Z,53.65
2022-08-14T02:29:56.307Z,53.53
2022-08-14T02:35:07.019Z,53.70
2022-08-14T02:40:12.746Z,54.01
2022-08-14T02:45:15.637Z,54.08
2022-08-14T02:50:20.087Z,54.47
2022-08-14T02:55:31.033Z,54.66
2022-08-14T03:00:39.919Z,54.63
2022-08-14T03:05:42.518Z,55.13
2022-08-14T03:10:49.050Z,55.14
2022-08-14T03:15:56.286Z,55.36
2022-08-14T03:21:02.816Z,55.64
2022-08-14T03:26:05.496Z,55.36
2022-08-14T03:31:13.142Z,55.58
2022-08-14T03:37:38.856Z,55.82
2022-08-14T03:41:39.493Z,55.86
2022-08-14T03:46:54.938Z,55.99
2022-08-14T03:52:00.803Z,56.27
2022-08-14T03:57:03.939Z,56.41
2022-08-14T04:02:09.550Z,56.47
2022-08-14T04:07:27.994Z,56.56
2022-08-14T04:12:36.061Z,56.57
2022-08-14T04:17:38.091Z,56.56
2022-08-14T04:22:44.153Z,56.31
2022-08-14T04:28:01.865Z,56.30
2022-08-14T04:33:13.375Z,56.62
2022-08-14T04:38:40.754Z,56.35
2022-08-14T04:43:42.972Z,56.24
2022-08-14T04:48:51.254Z,56.05
2022-08-14T04:53:57.485Z,55.94
2022-08-14T04:59:05.232Z,55.74
2022-08-14T05:04:16.074Z,55.52
2022-08-14T05:09:18.283Z,55.37
2022-08-14T05:14:45.561Z,55.06
2022-08-14T05:21:04.433Z,54.92
2022-08-14T05:25:07.457Z,54.32
2022-08-14T05:30:09.763Z,54.56
2022-08-14T05:35:11.992Z,54.54
2022-08-14T05:40:16.792Z,54.25
2022-08-14T05:45:20.454Z,53.82
2022-08-14T05:50:22.140Z,53.80
2022-08-14T05:55:26.174Z,53.96
2022-08-14T06:00:37.174Z,53.71
2022-08-14T06:05:41.728Z,54.01
2022-08-14T06:10:44.381Z,53.94
2022-08-14T06:15:47.640Z,53.87
2022-08-14T06:20:49.601Z,53.72
2022-08-14T06:25:52.710Z,54.02
2022-08-14T06:30:56.105Z,53.96
2022-08-14T06:35:58.320Z,54.10
2022-08-14T06:41:00.627Z,54.26
2022-08-14T06:46:04.021Z,53.69
2022-08-14T06:51:06.087Z,53.83
2022-08-14T06:56:07.800Z,53.27
2022-08-14T07:01:28.347Z,53.42
2022-08-14T07:06:46.586Z,52.92
2022-08-14T07:11:49.709Z,52.96
2022-08-14T07:16:51.393Z,52.83
2022-08-14T07:21:53.027Z,52.47
2022-08-14T07:26:55.075Z,52.48
2022-08-14T07:31:57.016Z,52.04
2022-08-14T07:37:01.098Z,52.14
2022-08-14T07:42:02.895Z,51.77
2022-08-14T07:47:05.286Z,50.87
2022-08-14T07:52:07.428Z,50.65
2022-08-14T07:57:12.176Z,50.37
2022-08-14T08:02:19.244Z,50.13
2022-08-14T08:07:24.916Z,48.99
2022-08-14T08:12:33.673Z,49.04
2022-08-14T08:17:39.018Z,48.54
2022-08-14T08:22:48.431Z,48.28
2022-08-14T08:28:08.603Z,47.94
2022-08-14T08:33:11.583Z,47.65
2022-08-14T08:39:15.646Z,47.48
2022-08-14T08:43:46.138Z,46.61
2022-08-14T08:54:19.907Z,45.24
2022-08-14T08:59:31.661Z,45.15
2022-08-14T09:04:45.221Z,44.16
2022-08-14T09:09:59.155Z,44.71
2022-08-14T09:15:09.057Z,43.71
2022-08-14T09:20:29.395Z,43.26
2022-08-14T09:26:00.315Z,41.94
2022-08-14T09:30:57.851Z,41.92
2022-08-14T09:36:18.721Z,41.67
2022-08-14T09:42:20.543Z,41.97
2022-08-14T09:47:21.296Z,41.28
2022-08-14T09:52:34.285Z,40.79
2022-08-14T09:57:36.261Z,40.38
2022-08-14T10:02:46.139Z,39.86
2022-08-14T10:07:53.721Z,39.48
2022-08-14T10:13:02.463Z,39.24
2022-08-14T10:18:04.468Z,39.59
2022-08-14T10:23:16.144Z,38.37
2022-08-14T10:28:57.448Z,38.28
2022-08-14T10:33:45.962Z,37.54
2022-08-14T10:38:58.271Z,36.29
2022-08-14T10:44:21.440Z,36.95
2022-08-14T10:49:26.531Z,36.77
2022-08-14T10:54:35.859Z,36.24
2022-08-14T11:00:13.621Z,35.97
2022-08-14T11:05:27.098Z,36.00
2022-08-14T11:10:48.817Z,34.87
2022-08-14T11:15:51.121Z,33.83
2022-08-14T11:20:56.780Z,32.37
2022-08-14T11:26:01.945Z,32.81
2022-08-14T11:31:08.504Z,32.14
2022-08-14T11:36:18.529Z,32.53
2022-08-14T11:41:21.091Z,33.56
2022-08-14T11:46:29.627Z,32.23
2022-08-14T11:51:36.112Z,31.49
2022-08-14T11:56:45.749Z,29.57
2022-08-14T12:01:48.890Z,31.41
2022-08-14T12:06:55.990Z,30.97
2022-08-14T12:11:58.287Z,30.66
2022-08-14T12:17:03.427Z,28.40
2022-08-14T12:22:06.871Z,28.75
2022-08-14T12:27:08.993Z,27.85
2022-08-14T12:32:12.739Z,28.10
2022-08-14T12:37:15.536Z,26.90
2022-08-14T12:42:27.262Z,26.69
2022-08-14T12:47:37.906Z,26.03
2022-08-14T12:52:54.080Z,24.67
2022-08-14T12:58:05.989Z,23.04
2022-08-14T13:03:29.398Z,24.23
2022-08-14T13:08:34.356Z,22.21
2022-08-14T13:13:37.783Z,23.15
2022-08-14T13:18:48.627Z,23.80
2022-08-14T13:24:02.996Z,23.22
2022-08-14T13:29:09.362Z,24.60
2022-08-14T13:34:13.432Z,23.70
2022-08-14T13:39:21.102Z,24.15
2022-08-14T13:44:26.667Z,25.76
2022-08-14T13:49:29.160Z,25.87
2022-08-14T13:54:34.557Z,25.60
2022-08-14T13:59:38.797Z,26.12
2022-08-14T14:04:42.767Z,26.23
2022-08-14T14:09:52.810Z,25.99
2022-08-14T14:15:48.353Z,26.49
2022-08-14T14:20:50.995Z,25.35
2022-08-14T14:25:56.956Z,25.77
2022-08-14T14:31:06.922Z,26.03
2022-08-14T14:36:14.066Z,25.75
2022-08-14T14:41:20.665Z,25.67
2022-08-14T14:46:36.630Z,25.75
2022-08-14T14:51:43.402Z,26.25
2022-08-14T14:56:50.316Z,26.69
2022-08-14T15:01:59.584Z,26.10
2022-08-14T15:07:01.475Z,25.91
2022-08-14T15:12:16.098Z,26.00
2022-08-14T15:17:28.403Z,27.68
2022-08-14T15:22:38.589Z,28.89
2022-08-14T15:27:45.906Z,29.54
2022-08-14T15:32:53.244Z,28.71
2022-08-14T15:37:56.018Z,28.43
2022-08-14T15:42:57.990Z,29.73
2022-08-14T15:48:01.657Z,30.73
2022-08-14T15:53:03.520Z,31.57
2022-08-14T15:58:08.139Z,31.85
2022-08-14T16:03:18.215Z,31.10
2022-08-14T16:08:30.822Z,33.20
2022-08-14T16:13:42.023Z,32.37
2022-08-14T16:18:44.425Z,33.08
2022-08-14T16:23:47.628Z,32.94
2022-08-14T16:29:04.990Z,33.51
2022-08-14T16:34:45.404Z,33.10
2022-08-14T16:39:30.611Z,33.95
2022-08-14T16:44:44.029Z,34.01
2022-08-14T16:50:03.033Z,35.35
2022-08-14T16:55:09.601Z,34.52
2022-08-14T17:00:28.706Z,34.37
2022-08-14T17:05:38.263Z,34.74
2022-08-14T17:10:42.770Z,34.80
2022-08-14T17:16:07.731Z,36.08
2022-08-14T17:21:38.086Z,35.27
2022-08-14T17:26:45.566Z,34.67
2022-08-14T17:32:02.236Z,34.62
2022-08-14T17:37:04.275Z,34.53
2022-08-14T17:42:08.055Z,34.51
2022-08-14T17:47:18.638Z,35.06
2022-08-14T17:52:34.137Z,35.42
2022-08-14T17:57:40.884Z,34.43
2022-08-14T18:02:51.094Z,35.23
2022-08-14T18:08:31.729Z,35.18
2022-08-14T18:13:16.480Z,35.21
2022-08-14T18:18:18.615Z,35.21
2022-08-14T18:23:21.720Z,35.25
2022-08-14T18:28:49.014Z,35.58
2022-08-14T18:34:31.174Z,35.97
2022-08-14T18:40:01.570Z,36.16
2022-08-14T18:45:29.487Z,36.30
2022-08-14T18:50:52.961Z,35.80
2022-08-14T18:56:09.793Z,36.92
2022-08-14T19:01:34.160Z,37.83
2022-08-14T19:06:45.788Z,37.69
2022-08-14T19:12:05.307Z,38.60
2022-08-14T19:17:42.132Z,39.53
2022-08-14T19:22:44.103Z,39.97
2022-08-14T19:28:31.010Z,40.19
2022-08-14T19:33:48.870Z,40.96
2022-08-14T19:38:57.648Z,41.07
2022-08-14T19:44:16.475Z,41.59
2022-08-14T19:50:08.617Z,41.98
2022-08-14T19:54:56.891Z,41.90
2022-08-14T20:00:29.553Z,42.42
2022-08-14T20:05:45.519Z,42.82
2022-08-14T20:11:08.411Z,43.18
2022-08-14T20:16:20.974Z,43.28
2022-08-14T20:21:35.313Z,44.05
2022-08-14T20:26:42.147Z,44.18
2022-08-14T20:31:48.811Z,44.40
2022-08-14T20:37:16.405Z,44.93
2022-08-14T20:42:49.514Z,45.00
2022-08-14T20:47:56.497Z,45.64
2022-08-14T20:53:05.820Z,46.18
2022-08-14T20:58:09.860Z,46.47
2022-08-14T21:03:56.356Z,46.87
2022-08-14T21:09:03.071Z,47.20
2022-08-14T21:14:21.054Z,47.58
2022-08-14T21:19:30.164Z,48.00
2022-08-14T21:24:39.227Z,48.28
2022-08-14T21:29:55.423Z,48.79
2022-08-14T21:35:02.103Z,48.99
2022-08-14T21:40:18.734Z,49.09
2022-08-14T21:45:35.800Z,49.00
2022-08-14T21:51:02.040Z,49.42
2022-08-14T21:56:03.917Z,49.39
2022-08-14T22:01:05.930Z,49.70
2022-08-14T22:06:13.277Z,50.47
2022-08-14T22:11:22.602Z,50.30
2022-08-14T22:17:01.992Z,50.45
2022-08-14T22:21:51.126Z,50.65
2022-08-14T22:26:52.849Z,50.92
2022-08-14T22:31:55.739Z,50.97
2022-08-14T22:36:57.904Z,51.18
2022-08-14T22:42:01.555Z,52.06
2022-08-14T22:47:03.837Z,52.31
2022-08-14T22:52:32.172Z,52.81
2022-08-14T22:57:37.855Z,52.97
2022-08-14T23:02:44.843Z,53.18
2022-08-14T23:08:57.859Z,53.71
2022-08-14T23:13:17.420Z,54.06
2022-08-14T23:18:24.264Z,54.31
2022-08-14T23:23:31.633Z,54.75
2022-08-14T23:28:56.946Z,55.05
2022-08-14T23:34:00.049Z,55.75
2022-08-14T23:39:07.035Z,56.03
2022-08-14T23:44:13.569Z,56.32
2022-08-14T23:49:16.559Z,56.76
2022-08-14T23:54:49.411Z,57.23
2022-08-14T23:59:45.040Z,57.37
